Accueil
METAR-TAF:

METAR-TAF

Aéroports :

La Grande/Union County Airport

La Grande, Oregon, États-Unis

latitude: 45-17N, longitude: 118-00W, altitude: 827 m

Observation

Le bulletin a été fait il y a 1 heure et 52 minutes, à 06:56 UTC
Vent calme
Température 17°C
Humidité 29%
Pression 1014 hPa
Visibilité: 16.1 km
Ciel clair

METAR: KLGD 220656Z AUTO 00000KT 10SM CLR 17/M01 A2995 RMK AO2 SLP277 T01721011

Heure: 01:48 (08:48 UTC)


TAF: absent

Observations et prévisions météorologiques de plus de 4000 aéroports (messages METAR et TAF).

Les stations disponibles sont représentées par des disques jaunes et rouges sur la carte.

Passer la souris dessus pour voir le nom de la station.

Cliquer dessus pour voir les observations et prévisions météorologiques.

Pour changer de carte: cliquez sur les boutons verts avec une croix noire pour zoomer, sur le bouton vert avec un tiret pour effectuer un zoom arrière, ou sur les flèches vertes pour les cartes adjacentes.


METAR-TAF: